Impacts TAF Board
For situational awareness. Not to be used for flight planning purposes.
IDs:

KPHL - Philadelphia Intl, PA, US

Issued at 2103 UTC 20 Sep 2018
Updated at 2106 UTC 20 Sep 2018
Potential Impact None Slight Moderate High
Time2054Z 20/22Z 20/23Z 21/00Z 21/01Z 21/02Z 21/03Z 21/04Z 21/05Z 21/06Z 21/07Z 21/08Z 21/09Z 21/10Z>>
Type OBS PRVL
  [TEMP]  
PRVL
  [TEMP]  
PRVL
  [TEMP]  
PRVL PRVL PRVL PRVL PRVL PRVL PRVL PRVL PRVL PRVL
VIS 10 >6 >6 >6 >6 >6 >6 >6 >6 >6 >6 >6 >6 >6
CIG 28 28
  [50]  
28
  [50]  
28
  [50]  
50 50 50 25 25 25 25 25 25 25
Cover OVC BKN
  [BKN]  
BKN
  [BKN]  
BKN
  [BKN]  
OVC OVC OVC OVC OVC OVC OVC OVC OVC OVC
FltCat MVFR MVFR
  [VFR]  
MVFR
  [VFR]  
MVFR
  [VFR]  
VFR VFR VFR MVFR MVFR MVFR MVFR MVFR MVFR MVFR
WX -- --
  [--]  
--
  [--]  
--
  [--]  
-- -- -- -- -- -- -- -- -- --
WDir 110 120
[120]
120
[120]
120
[120]
120 120 120 140 140 140 140 140 140 140
WSpd 10 10
  [10]  
10
  [10]  
10
  [10]  
7 7 7 3 3 3 3 3 3 3
WGst -- --
  [--]  
--
  [--]  
--
  [--]  
-- -- -- -- -- -- -- -- -- --
Raw TAF
KPHL 202103Z 2021/2124 12010KT P6SM BKN028 BKN050
  TEMPO 2021/2101 SCT028 BKN050
  FM210100 12007KT P6SM SCT025 OVC050
  FM210400 14003KT P6SM OVC025
  FM211100 17006KT P6SM OVC015
  FM211600 19009KT P6SM SCT015 BKN025
  FM212100 20012KT P6SM SCT060 BKN150


Raw METAR
KPHL 202054Z 11010KT 10SM BKN028 OVC049 22/17 A3021 RMK AO2 SLP228 T02220172 55001 $
KPHL 202023Z 10006KT 10SM BKN027 OVC032 23/17 A3020 RMK AO2 T02280172 $
KPHL 201954Z 10006KT 10SM BKN030 OVC036 23/17 A3019 RMK AO2 SLP223 T02330172 $
KPHL 201854Z 12006KT 10SM SCT030 BKN050 OVC100 24/17 A3020 RMK AO2 SLP227 T02390172 $

METAR Board
Radar Display
Forecast Discussion
For situational awareness. Not to be used for flight planning purposes.